createdAt,value
2024-03-26T00:02:05.242Z,0.57
2024-03-26T00:04:33.213Z,0.57
2024-03-26T00:07:01.134Z,0.57
2024-03-26T00:09:29.148Z,0.55
2024-03-26T00:11:57.036Z,0.53
2024-03-26T00:14:25.201Z,0.52
2024-03-26T00:16:53.252Z,0.51
2024-03-26T00:19:21.122Z,0.52
2024-03-26T00:21:48.982Z,0.45
2024-03-26T00:24:17.258Z,0.38
2024-03-26T00:26:45.133Z,0.34
2024-03-26T00:29:12.986Z,0.30
2024-03-26T00:31:40.856Z,0.25
2024-03-26T00:34:08.946Z,0.19
2024-03-26T00:36:37.311Z,0.13
2024-03-26T00:39:05.166Z,0.06
2024-03-26T00:41:33.031Z,0.03
2024-03-26T00:44:01.307Z,0.05
2024-03-26T00:46:29.480Z,0.10
2024-03-26T00:48:57.345Z,0.19
2024-03-26T00:51:25.415Z,0.29
2024-03-26T00:53:53.234Z,0.38
2024-03-26T00:56:21.151Z,0.45
2024-03-26T00:58:49.010Z,0.49
2024-03-26T01:01:16.932Z,0.52
2024-03-26T01:03:44.844Z,0.54
2024-03-26T01:06:13.019Z,0.54
2024-03-26T01:08:40.992Z,0.54
2024-03-26T01:11:08.958Z,0.53
2024-03-26T01:13:36.819Z,0.52
2024-03-26T01:16:06.250Z,0.49
2024-03-26T01:18:34.188Z,0.47
2024-03-26T01:21:02.087Z,0.48
2024-03-26T01:23:30.027Z,0.47
2024-03-26T01:25:57.995Z,0.42
2024-03-26T01:28:25.861Z,0.39
2024-03-26T01:30:53.720Z,0.37
2024-03-26T01:33:21.688Z,0.37
2024-03-26T01:35:55.946Z,0.38
2024-03-26T01:38:23.869Z,0.36
2024-03-26T01:40:51.836Z,0.34
2024-03-26T01:43:19.701Z,0.32
2024-03-26T01:45:47.667Z,0.25
2024-03-26T01:48:15.530Z,0.18
2024-03-26T01:50:43.511Z,0.15
2024-03-26T01:53:11.673Z,0.06
2024-03-26T01:55:39.744Z,-0.02
2024-03-26T01:58:08.120Z,-0.04
2024-03-26T02:00:36.730Z,-0.06
2024-03-26T02:03:04.672Z,-0.12
2024-03-26T02:05:32.646Z,-0.14
2024-03-26T02:08:00.718Z,-0.19
2024-03-26T02:10:28.681Z,-0.23
2024-03-26T02:12:56.542Z,-0.24
2024-03-26T02:15:24.513Z,-0.30
2024-03-26T02:17:52.374Z,-0.31
2024-03-26T02:20:22.596Z,-0.30
2024-03-26T02:22:57.209Z,-0.34
2024-03-26T02:25:25.083Z,-0.35
2024-03-26T02:27:52.945Z,-0.41
2024-03-26T02:30:21.028Z,-0.43
2024-03-26T02:32:48.905Z,-0.45
2024-03-26T02:35:16.851Z,-0.50
2024-03-26T02:37:44.820Z,-0.56
2024-03-26T02:40:13.502Z,-0.63
2024-03-26T02:42:41.369Z,-0.69
2024-03-26T02:45:10.569Z,-0.72
2024-03-26T02:47:38.432Z,-0.76
2024-03-26T02:50:07.012Z,-0.78
2024-03-26T02:52:36.717Z,-0.81
2024-03-26T02:55:05.201Z,-0.85
2024-03-26T02:57:33.066Z,-0.88
2024-03-26T03:00:01.040Z,-0.92
2024-03-26T03:02:29.116Z,-0.93
2024-03-26T03:04:56.971Z,-0.97
2024-03-26T03:07:24.852Z,-0.95
2024-03-26T03:09:52.706Z,-0.93
2024-03-26T03:12:20.565Z,-0.94
2024-03-26T03:14:48.443Z,-0.98
2024-03-26T03:17:16.356Z,-0.98
2024-03-26T03:19:44.161Z,-0.98
2024-03-26T03:22:12.539Z,-0.97
2024-03-26T03:24:40.529Z,-0.98
2024-03-26T03:27:08.358Z,-1.04
2024-03-26T03:29:36.240Z,-1.08
2024-03-26T03:32:04.821Z,-1.10
2024-03-26T03:34:32.889Z,-1.14
2024-03-26T03:37:00.762Z,-1.14
2024-03-26T03:39:28.724Z,-1.14
2024-03-26T03:41:56.588Z,-1.16
2024-03-26T03:44:24.656Z,-1.15
2024-03-26T03:46:52.523Z,-1.15
2024-03-26T03:49:20.388Z,-1.16
2024-03-26T03:51:48.259Z,-1.17
2024-03-26T03:54:16.116Z,-1.20
2024-03-26T03:56:44.108Z,-1.25
2024-03-26T03:59:11.961Z,-1.29
2024-03-26T04:01:39.926Z,-1.31
2024-03-26T04:04:07.993Z,-1.35
2024-03-26T04:06:36.481Z,-1.35
2024-03-26T04:09:05.771Z,-1.37
2024-03-26T04:11:35.884Z,-1.39
2024-03-26T04:14:04.080Z,-1.41
2024-03-26T04:16:32.031Z,-1.43
2024-03-26T04:18:59.900Z,-1.45
2024-03-26T04:21:27.759Z,-1.49
2024-03-26T04:23:56.236Z,-1.49
2024-03-26T04:26:24.103Z,-1.53
2024-03-26T04:28:52.075Z,-1.53
2024-03-26T04:31:19.937Z,-1.55
2024-03-26T04:33:47.686Z,-1.55
2024-03-26T04:36:15.562Z,-1.54
2024-03-26T04:38:43.637Z,-1.49
2024-03-26T04:41:11.497Z,-1.47
2024-03-26T04:43:39.364Z,-1.46
2024-03-26T04:46:07.236Z,-1.45
2024-03-26T04:48:35.133Z,-1.44
2024-03-26T04:51:03.270Z,-1.46
2024-03-26T04:53:31.132Z,-1.50
2024-03-26T04:55:59.315Z,-1.55
2024-03-26T04:58:27.272Z,-1.59
2024-03-26T05:00:55.037Z,-1.62
2024-03-26T05:03:23.002Z,-1.67
2024-03-26T05:05:50.931Z,-1.68
2024-03-26T05:08:18.838Z,-1.65
2024-03-26T05:10:47.122Z,-1.65
2024-03-26T05:13:16.015Z,-1.66
2024-03-26T05:15:43.823Z,-1.65
2024-03-26T05:18:11.833Z,-1.66
2024-03-26T05:20:39.700Z,-1.66
2024-03-26T05:23:07.667Z,-1.60
2024-03-26T05:25:38.008Z,-1.50
2024-03-26T05:28:06.438Z,-1.44
2024-03-26T05:30:34.215Z,-1.40
2024-03-26T05:33:02.507Z,-1.33
2024-03-26T05:35:31.192Z,-1.26
2024-03-26T05:38:01.451Z,-1.21
2024-03-26T05:40:30.006Z,-1.15
2024-03-26T05:42:57.859Z,-1.09
2024-03-26T05:45:25.656Z,-1.02
2024-03-26T05:47:53.832Z,-0.95
2024-03-26T05:50:22.068Z,-0.89
2024-03-26T05:52:50.213Z,-0.81
2024-03-26T05:55:18.414Z,-0.71
2024-03-26T05:57:46.280Z,-0.64
2024-03-26T06:00:15.228Z,-0.60
2024-03-26T06:02:43.162Z,-0.54
2024-03-26T06:05:11.208Z,-0.44
2024-03-26T06:07:39.086Z,-0.38
2024-03-26T06:10:07.612Z,-0.31
2024-03-26T06:12:35.532Z,-0.21
2024-03-26T06:15:03.808Z,-0.11
2024-03-26T06:17:31.778Z,-0.04
2024-03-26T06:19:59.630Z,0.03
2024-03-26T06:22:27.708Z,0.12
2024-03-26T06:24:55.666Z,0.21
2024-03-26T06:27:23.733Z,0.31
2024-03-26T06:29:51.727Z,0.41
2024-03-26T06:32:19.755Z,0.53
2024-03-26T06:34:48.919Z,0.66
2024-03-26T06:37:16.755Z,0.77
2024-03-26T06:39:44.803Z,0.89
2024-03-26T06:42:12.773Z,1.02
2024-03-26T06:44:40.770Z,1.14
2024-03-26T06:47:09.323Z,1.27
2024-03-26T06:49:37.402Z,1.41
2024-03-26T06:52:05.935Z,1.53
2024-03-26T06:54:34.356Z,1.65
2024-03-26T06:57:02.233Z,1.79
2024-03-26T06:59:30.288Z,1.93
2024-03-26T07:02:01.259Z,2.05
2024-03-26T07:04:29.222Z,2.16
2024-03-26T07:06:57.321Z,2.32
2024-03-26T07:09:25.230Z,2.46
2024-03-26T07:11:53.357Z,2.63
2024-03-26T07:14:21.742Z,2.80
2024-03-26T07:16:49.647Z,2.99
2024-03-26T07:19:17.612Z,3.18
2024-03-26T07:21:46.984Z,3.39
2024-03-26T07:24:14.983Z,3.57
2024-03-26T07:26:42.855Z,3.77
2024-03-26T07:29:10.917Z,3.94
2024-03-26T07:31:38.783Z,4.10
2024-03-26T07:34:06.707Z,4.28
2024-03-26T07:36:34.615Z,4.44
2024-03-26T07:39:02.702Z,4.58
2024-03-26T07:41:31.218Z,4.73
2024-03-26T07:44:00.260Z,4.86
2024-03-26T07:46:28.156Z,4.98
2024-03-26T07:48:56.129Z,5.11
2024-03-26T07:51:26.138Z,5.23
2024-03-26T07:53:54.086Z,5.37
2024-03-26T07:56:22.045Z,5.48
2024-03-26T07:58:49.925Z,5.55
2024-03-26T08:01:18.558Z,5.65
2024-03-26T08:03:46.765Z,5.78
2024-03-26T08:06:14.735Z,5.92
2024-03-26T08:08:42.701Z,6.07
2024-03-26T08:11:14.542Z,6.17
2024-03-26T08:13:42.631Z,6.33
2024-03-26T08:16:11.162Z,6.51
2024-03-26T08:18:39.175Z,6.69
2024-03-26T08:21:08.182Z,6.92
2024-03-26T08:23:36.048Z,7.18
2024-03-26T08:26:04.003Z,7.41
2024-03-26T08:28:31.999Z,7.63
2024-03-26T08:31:00.044Z,7.86
2024-03-26T08:33:28.010Z,8.05
2024-03-26T08:35:56.011Z,8.18
2024-03-26T08:38:24.119Z,8.29
2024-03-26T08:40:52.117Z,8.41
2024-03-26T08:43:20.407Z,8.56
2024-03-26T08:45:49.491Z,8.70
2024-03-26T08:48:17.659Z,8.85
2024-03-26T08:50:45.528Z,8.99
2024-03-26T08:53:13.390Z,9.02
2024-03-26T08:55:41.257Z,9.12
2024-03-26T08:58:09.439Z,9.29
2024-03-26T09:00:37.499Z,9.45
2024-03-26T09:03:05.754Z,9.62
2024-03-26T09:05:34.148Z,9.76
2024-03-26T09:08:02.126Z,9.89
2024-03-26T09:10:30.600Z,9.97
2024-03-26T09:12:58.466Z,10.01
2024-03-26T09:15:26.360Z,10.07
2024-03-26T09:17:54.721Z,10.21
2024-03-26T09:20:22.583Z,10.34
2024-03-26T09:22:50.438Z,10.45
2024-03-26T09:25:18.618Z,10.60
2024-03-26T09:27:46.578Z,10.67
2024-03-26T09:30:16.098Z,10.80
2024-03-26T09:32:44.263Z,10.94
2024-03-26T09:35:12.429Z,11.10
2024-03-26T09:37:40.398Z,11.29
2024-03-26T09:40:08.780Z,11.46
2024-03-26T09:42:36.842Z,11.61
2024-03-26T09:45:07.409Z,11.76
2024-03-26T09:47:35.863Z,11.94
2024-03-26T09:50:04.764Z,12.04
2024-03-26T09:52:36.188Z,12.11
2024-03-26T09:55:07.434Z,12.27
2024-03-26T09:57:35.398Z,12.46
2024-03-26T10:00:04.177Z,12.58
2024-03-26T10:02:32.972Z,12.74
2024-03-26T10:05:02.783Z,12.97
2024-03-26T10:07:30.855Z,13.10
2024-03-26T10:09:58.924Z,13.19
2024-03-26T10:12:26.907Z,13.33
2024-03-26T10:14:55.298Z,13.47
2024-03-26T10:17:23.233Z,13.61
2024-03-26T10:19:51.101Z,13.79
2024-03-26T10:22:18.967Z,13.86
2024-03-26T10:24:46.837Z,13.83
2024-03-26T10:27:14.694Z,13.94
2024-03-26T10:29:42.665Z,14.14
2024-03-26T10:32:17.296Z,14.29
2024-03-26T10:34:48.942Z,14.50
2024-03-26T10:37:16.810Z,14.71
2024-03-26T10:39:46.124Z,14.96
2024-03-26T10:42:14.689Z,15.19
2024-03-26T10:44:42.762Z,15.43
2024-03-26T10:47:11.250Z,15.66
2024-03-26T10:49:39.823Z,15.74
2024-03-26T10:52:09.034Z,15.70
2024-03-26T10:54:37.503Z,15.77
2024-03-26T10:57:05.788Z,15.95
2024-03-26T10:59:33.637Z,16.20
2024-03-26T11:02:01.780Z,16.56
2024-03-26T11:04:30.188Z,16.73
2024-03-26T11:06:59.084Z,16.77
2024-03-26T11:09:27.043Z,16.68
2024-03-26T11:11:59.833Z,16.76
2024-03-26T11:14:30.556Z,16.78
2024-03-26T11:17:01.289Z,16.83
2024-03-26T11:19:30.072Z,16.96
2024-03-26T11:21:58.249Z,17.00
2024-03-26T11:24:36.349Z,17.05
2024-03-26T11:27:08.827Z,17.07
2024-03-26T11:29:37.618Z,17.10
2024-03-26T11:32:08.346Z,17.18
2024-03-26T11:34:36.828Z,17.41
2024-03-26T11:37:06.959Z,17.64
2024-03-26T11:39:35.542Z,17.71
2024-03-26T11:42:04.852Z,17.71
2024-03-26T11:44:33.420Z,17.72
2024-03-26T11:47:01.278Z,17.76
2024-03-26T11:49:29.445Z,17.80
2024-03-26T11:51:57.312Z,17.91
2024-03-26T11:54:25.281Z,17.94
2024-03-26T11:56:53.351Z,17.97
2024-03-26T11:59:25.320Z,17.98
2024-03-26T12:01:53.175Z,17.98
2024-03-26T12:04:21.975Z,17.98
2024-03-26T12:06:49.939Z,18.00
2024-03-26T12:09:17.897Z,18.07
2024-03-26T12:11:45.876Z,18.03
2024-03-26T12:14:13.730Z,18.04
2024-03-26T12:16:42.423Z,18.09
2024-03-26T12:19:10.280Z,18.13
2024-03-26T12:21:38.356Z,18.20
2024-03-26T12:24:06.854Z,18.28
2024-03-26T12:26:34.697Z,18.41
2024-03-26T12:29:02.888Z,18.48
2024-03-26T12:31:31.045Z,18.42
2024-03-26T12:34:11.196Z,18.59
2024-03-26T12:36:39.776Z,18.81
2024-03-26T12:39:12.062Z,18.88
2024-03-26T12:41:40.322Z,18.72
2024-03-26T12:44:12.876Z,18.57
2024-03-26T12:46:41.538Z,18.55
2024-03-26T12:49:09.442Z,18.60
2024-03-26T12:51:37.517Z,18.76
2024-03-26T12:54:07.240Z,18.84
2024-03-26T12:56:36.480Z,18.94
2024-03-26T12:59:06.242Z,18.98
2024-03-26T13:01:35.044Z,19.05
2024-03-26T13:04:02.888Z,19.13
2024-03-26T13:06:30.754Z,19.23
2024-03-26T13:08:58.622Z,19.44
2024-03-26T13:11:26.592Z,19.68
2024-03-26T13:13:54.581Z,19.86
2024-03-26T13:16:22.618Z,20.04
2024-03-26T13:18:50.488Z,20.18
2024-03-26T13:21:18.971Z,20.11
2024-03-26T13:23:46.831Z,19.88
2024-03-26T13:26:14.696Z,19.81
2024-03-26T13:28:42.768Z,19.82
2024-03-26T13:31:10.635Z,19.75
2024-03-26T13:33:38.930Z,19.69
2024-03-26T13:36:07.522Z,19.81
2024-03-26T13:38:37.464Z,19.91
2024-03-26T13:41:06.706Z,20.02
2024-03-26T13:43:34.566Z,20.15
2024-03-26T13:46:02.519Z,20.33
2024-03-26T13:48:30.703Z,20.49
2024-03-26T13:50:58.569Z,20.59
2024-03-26T13:53:26.450Z,20.70
2024-03-26T13:55:54.323Z,20.84
2024-03-26T13:58:22.121Z,20.78
2024-03-26T14:00:50.142Z,20.70
2024-03-26T14:03:17.997Z,20.59
2024-03-26T14:05:46.171Z,20.51
2024-03-26T14:08:14.042Z,20.33
2024-03-26T14:10:42.123Z,20.03
2024-03-26T14:13:09.975Z,19.94
2024-03-26T14:15:37.858Z,19.77
2024-03-26T14:18:06.028Z,19.46
2024-03-26T14:20:33.935Z,19.10
2024-03-26T14:23:01.949Z,18.68
2024-03-26T14:25:30.017Z,18.26
2024-03-26T14:27:57.884Z,17.94
2024-03-26T14:30:25.956Z,17.63
2024-03-26T14:32:53.917Z,17.35
2024-03-26T14:35:21.992Z,17.24
2024-03-26T14:37:51.611Z,17.14
2024-03-26T14:40:19.771Z,17.07
2024-03-26T14:42:47.634Z,17.09
2024-03-26T14:45:15.504Z,17.31
2024-03-26T14:47:43.468Z,17.62
2024-03-26T14:50:14.000Z,17.83
2024-03-26T14:52:41.968Z,18.09
2024-03-26T14:55:10.246Z,18.36
2024-03-26T14:57:38.513Z,18.57
2024-03-26T15:00:07.052Z,18.70
2024-03-26T15:02:34.961Z,18.67
2024-03-26T15:05:05.697Z,18.54
2024-03-26T15:07:33.662Z,18.50
2024-03-26T15:10:01.696Z,18.66
2024-03-26T15:12:29.701Z,18.91
2024-03-26T15:14:58.380Z,19.09
2024-03-26T15:17:26.308Z,19.09
2024-03-26T15:19:54.221Z,18.96
2024-03-26T15:22:22.286Z,18.79
2024-03-26T15:24:50.258Z,18.78
2024-03-26T15:27:18.118Z,18.86
2024-03-26T15:30:04.936Z,18.96
2024-03-26T15:32:32.896Z,18.99
2024-03-26T15:35:00.771Z,19.03
2024-03-26T15:37:28.728Z,18.97
2024-03-26T15:39:56.809Z,18.91
2024-03-26T15:42:24.684Z,18.83
2024-03-26T15:44:52.938Z,18.75
2024-03-26T15:47:20.833Z,18.63
2024-03-26T15:49:48.773Z,18.42
2024-03-26T15:52:16.740Z,18.28
2024-03-26T15:54:44.637Z,18.09
2024-03-26T15:57:12.511Z,17.84
2024-03-26T15:59:40.439Z,17.64
2024-03-26T16:02:08.307Z,17.51
2024-03-26T16:04:36.482Z,17.35
2024-03-26T16:07:04.861Z,17.24
2024-03-26T16:09:32.723Z,17.09
2024-03-26T16:12:05.313Z,16.83
2024-03-26T16:14:33.362Z,16.52
2024-03-26T16:17:01.338Z,16.27
2024-03-26T16:19:29.304Z,16.08
2024-03-26T16:21:57.290Z,15.88
2024-03-26T16:24:25.254Z,15.67
2024-03-26T16:26:53.210Z,15.49
2024-03-26T16:29:21.175Z,15.29
2024-03-26T16:31:49.038Z,15.13
2024-03-26T16:34:17.005Z,14.98
2024-03-26T16:36:46.511Z,14.82
2024-03-26T16:39:16.649Z,14.66
2024-03-26T16:41:47.358Z,14.55
2024-03-26T16:44:15.224Z,14.42
2024-03-26T16:46:44.013Z,14.28
2024-03-26T16:49:11.897Z,14.16
2024-03-26T16:51:39.845Z,14.02
2024-03-26T16:54:07.717Z,13.90
2024-03-26T16:56:36.414Z,13.79
2024-03-26T16:59:05.798Z,13.69
2024-03-26T17:01:33.880Z,13.58
2024-03-26T17:04:01.834Z,13.49
2024-03-26T17:06:29.806Z,13.40
2024-03-26T17:08:57.677Z,13.31
2024-03-26T17:11:28.239Z,13.22
2024-03-26T17:13:58.321Z,13.15
2024-03-26T17:16:26.280Z,13.07
2024-03-26T17:18:55.281Z,12.99
2024-03-26T17:21:23.153Z,12.92
2024-03-26T17:23:51.120Z,12.85
2024-03-26T17:26:19.170Z,12.77
2024-03-26T17:28:48.064Z,12.69
2024-03-26T17:31:16.239Z,12.63
2024-03-26T17:33:44.176Z,12.57
2024-03-26T17:36:12.071Z,12.53
2024-03-26T17:38:42.392Z,12.50
2024-03-26T17:41:10.270Z,12.47
2024-03-26T17:43:38.325Z,12.45
2024-03-26T17:46:06.295Z,12.41
2024-03-26T17:48:34.163Z,12.36
2024-03-26T17:51:02.541Z,12.33
2024-03-26T17:53:30.610Z,12.31
2024-03-26T17:55:58.683Z,12.27
2024-03-26T17:58:30.127Z,12.24
2024-03-26T18:01:09.364Z,12.21
2024-03-26T18:03:37.639Z,12.18
2024-03-26T18:06:05.911Z,12.14
2024-03-26T18:08:33.777Z,12.10
2024-03-26T18:11:01.766Z,12.05
2024-03-26T18:13:30.540Z,12.02
2024-03-26T18:16:03.166Z,11.98
2024-03-26T18:18:31.302Z,11.93
2024-03-26T18:21:01.101Z,11.88
2024-03-26T18:23:29.060Z,11.81
2024-03-26T18:26:15.049Z,11.76
2024-03-26T18:28:42.930Z,11.71
2024-03-26T18:31:12.008Z,11.68
2024-03-26T18:33:39.975Z,11.64
2024-03-26T18:36:07.944Z,11.61
2024-03-26T18:38:36.016Z,11.59
2024-03-26T18:41:06.525Z,11.57
2024-03-26T18:43:39.242Z,11.54
2024-03-26T18:46:13.287Z,11.49
2024-03-26T18:48:42.038Z,11.45
2024-03-26T18:51:10.394Z,11.43
2024-03-26T18:53:38.567Z,11.43
2024-03-26T18:56:08.670Z,11.39
2024-03-26T18:58:40.659Z,11.38
2024-03-26T19:01:18.766Z,11.37
2024-03-26T19:03:48.048Z,11.37
2024-03-26T19:06:16.975Z,11.34
2024-03-26T19:08:45.840Z,11.30
2024-03-26T19:11:14.208Z,11.26
2024-03-26T19:13:42.480Z,11.23
2024-03-26T19:16:11.161Z,11.20
2024-03-26T19:18:39.139Z,11.17
2024-03-26T19:21:07.828Z,11.16
2024-03-26T19:23:37.222Z,11.15
2024-03-26T19:26:06.879Z,11.14
2024-03-26T19:28:35.614Z,11.13
2024-03-26T19:31:07.025Z,11.11
2024-03-26T19:33:35.875Z,11.08
2024-03-26T19:36:08.023Z,11.06
2024-03-26T19:38:37.210Z,11.05
2024-03-26T19:41:08.355Z,11.04
2024-03-26T19:43:38.143Z,11.00
2024-03-26T19:46:10.349Z,10.97
2024-03-26T19:48:39.529Z,10.95
2024-03-26T19:51:08.832Z,10.93
2024-03-26T19:53:37.031Z,10.90
2024-03-26T19:56:12.518Z,10.89
2024-03-26T19:58:43.582Z,10.88
2024-03-26T20:01:12.166Z,10.87
2024-03-26T20:03:40.135Z,10.84
2024-03-26T20:06:12.910Z,10.82
2024-03-26T20:08:44.093Z,10.79
2024-03-26T20:11:12.633Z,10.77
2024-03-26T20:13:41.481Z,10.75
2024-03-26T20:16:09.601Z,10.74
2024-03-26T20:18:37.465Z,10.70
2024-03-26T20:21:07.055Z,10.67
2024-03-26T20:23:34.894Z,10.63
2024-03-26T20:26:04.762Z,10.60
2024-03-26T20:28:32.936Z,10.58
2024-03-26T20:31:12.826Z,10.55
2024-03-26T20:33:42.082Z,10.53
2024-03-26T20:36:16.526Z,10.51
2024-03-26T20:38:45.366Z,10.48
2024-03-26T20:41:13.239Z,10.44
2024-03-26T20:43:41.512Z,10.42
2024-03-26T20:46:10.409Z,10.39
2024-03-26T20:48:38.602Z,10.36
2024-03-26T20:51:10.547Z,10.31
2024-03-26T20:53:39.220Z,10.27
2024-03-26T20:56:08.890Z,10.24
2024-03-26T20:58:36.911Z,10.21
2024-03-26T21:01:05.273Z,10.17
2024-03-26T21:03:36.314Z,10.13
2024-03-26T21:06:06.262Z,10.10
2024-03-26T21:08:35.347Z,10.07
2024-03-26T21:11:13.089Z,10.04
2024-03-26T21:13:41.348Z,10.02
2024-03-26T21:16:12.276Z,10.00
2024-03-26T21:18:48.937Z,9.96
2024-03-26T21:21:21.304Z,9.93
2024-03-26T21:23:49.962Z,9.90
2024-03-26T21:26:19.093Z,9.90
2024-03-26T21:28:47.501Z,9.87
2024-03-26T21:31:15.411Z,9.87
2024-03-26T21:33:43.315Z,9.87
2024-03-26T21:36:11.943Z,9.86
2024-03-26T21:38:39.917Z,9.85
2024-03-26T21:41:08.550Z,9.84
2024-03-26T21:43:36.592Z,9.82
2024-03-26T21:46:05.308Z,9.81
2024-03-26T21:48:33.519Z,9.80
2024-03-26T21:51:03.229Z,9.79
2024-03-26T21:53:31.199Z,9.79
2024-03-26T21:56:04.120Z,9.78
2024-03-26T21:58:32.151Z,9.78
2024-03-26T22:01:09.736Z,9.77
2024-03-26T22:03:38.015Z,9.74
2024-03-26T22:06:07.940Z,9.70
2024-03-26T22:08:35.807Z,9.66
2024-03-26T22:11:03.866Z,9.63
2024-03-26T22:13:32.456Z,9.58
2024-03-26T22:16:01.749Z,9.54
2024-03-26T22:18:30.435Z,9.50
2024-03-26T22:21:00.752Z,9.47
2024-03-26T22:23:30.454Z,9.42
2024-03-26T22:26:03.842Z,9.39
2024-03-26T22:28:31.730Z,9.35
2024-03-26T22:31:03.276Z,9.33
2024-03-26T22:33:31.325Z,9.29
2024-03-26T22:35:59.315Z,9.27
2024-03-26T22:38:27.287Z,9.25
2024-03-26T22:40:56.381Z,9.23
2024-03-26T22:43:25.162Z,9.21
2024-03-26T22:45:59.907Z,9.20
2024-03-26T22:48:28.470Z,9.20
2024-03-26T22:50:57.434Z,9.20
2024-03-26T22:53:25.845Z,9.20
2024-03-26T22:56:07.126Z,9.20
2024-03-26T22:58:35.087Z,9.21
2024-03-26T23:01:05.747Z,9.22
2024-03-26T23:03:33.795Z,9.22
2024-03-26T23:06:02.992Z,9.20
2024-03-26T23:08:31.258Z,9.19
2024-03-26T23:10:59.234Z,9.18
2024-03-26T23:13:27.913Z,9.16
2024-03-26T23:16:05.696Z,9.15
2024-03-26T23:18:33.681Z,9.15
2024-03-26T23:21:03.799Z,9.13
2024-03-26T23:23:31.661Z,9.13
2024-03-26T23:25:59.656Z,9.13
2024-03-26T23:28:27.596Z,9.13
2024-03-26T23:30:55.462Z,9.12
2024-03-26T23:33:23.332Z,9.13
2024-03-26T23:35:51.295Z,9.12
2024-03-26T23:38:19.175Z,9.13
2024-03-26T23:40:50.205Z,9.13
2024-03-26T23:43:18.384Z,9.12
2024-03-26T23:45:46.246Z,9.11
2024-03-26T23:48:14.308Z,9.11
2024-03-26T23:50:42.180Z,9.11
2024-03-26T23:53:10.666Z,9.11
2024-03-26T23:55:39.034Z,9.11
2024-03-26T23:58:06.998Z,9.10
